Time;durP1;ratioP1;P1;durP2;ratioP2;P2;SDS_P1;SDS_P2;PMS_P1;PMS_P2;Temp;Humidity;BMP_temperature;BMP_pressure;BME280_temperature;BME280_humidity;BME280_pressure;Samples;Min_cycle;Max_cycle;Signal;HPM_P1;HPM_P2
2022/03/05 00:02:18;;;;;;;39.67;17.42;;;;;;;;;;5025013;28;20022;-82
2022/03/05 00:04:44;;;;;;;36.50;17.65;;;3.10;99.90;;;;;;5041643;28;20036;-84
2022/03/05 00:07:10;;;;;;;37.58;16.70;;;1.70;99.90;;;;;;5025023;28;20409;-82
2022/03/05 00:09:38;;;;;;;39.42;20.50;;;5.40;99.90;;;;;;5026075;28;20030;-81
2022/03/05 00:12:04;;;;;;;38.03;18.50;;;;;;;;;;5024665;28;20417;-82
2022/03/05 00:14:31;;;;;;;40.30;18.38;;;;;;;;;;5041435;28;20026;-83
2022/03/05 00:16:57;;;;;;;47.97;20.67;;;;;;;;;;5039511;28;20021;-83
2022/03/05 00:19:22;;;;;;;40.30;18.80;;;3.00;99.90;;;;;;5039802;28;20053;-81
2022/03/05 00:21:49;;;;;;;45.08;20.50;;;3.10;99.90;;;;;;5021936;28;20504;-84
2022/03/05 00:24:15;;;;;;;35.55;17.05;;;1.20;99.90;;;;;;5039455;28;20030;-80
2022/03/05 00:26:43;;;;;;;38.15;19.15;;;4.70;99.90;;;;;;5037992;28;20561;-82
2022/03/05 00:29:09;;;;;;;39.60;18.38;;;4.40;99.90;;;;;;5020163;28;20030;-82
2022/03/05 00:31:35;;;;;;;45.03;19.33;;;3.30;99.90;;;;;;5020058;28;20029;-80
2022/03/05 00:34:02;;;;;;;41.17;19.98;;;4.10;99.90;;;;;;5022350;28;20022;-81
2022/03/05 00:36:30;;;;;;;40.60;18.90;;;5.00;99.90;;;;;;5027266;28;20026;-80
2022/03/05 00:38:56;;;;;;;39.85;18.10;;;2.90;99.90;;;;;;5003647;28;20048;-86
2022/03/05 00:41:24;;;;;;;44.28;19.67;;;2.90;99.90;;;;;;5006913;28;20026;-81
2022/03/05 00:43:50;;;;;;;42.88;20.15;;;2.90;99.90;;;;;;4990811;28;20081;-82
2022/03/05 00:46:18;;;;;;;38.85;20.10;;;5.00;99.90;;;;;;5007693;28;20030;-81
2022/03/05 00:48:45;;;;;;;39.20;18.45;;;3.10;99.90;;;;;;5007677;28;20061;-81
2022/03/05 00:51:11;;;;;;;43.10;20.45;;;4.50;99.90;;;;;;5009292;28;20021;-81
2022/03/05 00:53:37;;;;;;;41.28;18.95;;;2.80;99.90;;;;;;5007684;28;20026;-83
2022/03/05 00:56:08;;;;;;;43.72;19.88;;;1.90;99.90;;;;;;5007406;28;20093;-82
2022/03/05 00:58:34;;;;;;;43.08;19.17;;;3.00;99.90;;;;;;5009936;28;20041;-80
2022/03/05 01:01:03;;;;;;;39.15;19.45;;;;;;;;;;5012955;28;20045;-82
2022/03/05 01:03:31;;;;;;;43.13;19.73;;;3.00;99.90;;;;;;5012761;28;20053;-82
2022/03/05 01:05:59;;;;;;;42.65;19.98;;;2.90;99.90;;;;;;5011678;28;20053;-85
2022/03/05 01:08:31;;;;;;;42.35;20.00;;;3.00;99.90;;;;;;5014007;28;20052;-81
2022/03/05 01:10:57;;;;;;;44.72;19.70;;;3.00;99.90;;;;;;4997743;28;20033;-81
2022/03/05 01:13:26;;;;;;;46.80;19.75;;;3.00;99.90;;;;;;5013101;28;20022;-82
2022/03/05 01:15:52;;;;;;;42.65;19.27;;;3.00;99.90;;;;;;5009236;28;20110;-82
2022/03/05 01:18:18;;;;;;;40.15;18.42;;;5.30;99.90;;;;;;5007034;28;20026;-81
2022/03/05 01:20:47;;;;;;;41.22;18.95;;;3.10;99.90;;;;;;5006461;28;20030;-80
2022/03/05 01:23:14;;;;;;;45.83;19.58;;;;;;;;;;5025507;28;20026;-81
2022/03/05 01:25:47;;;;;;;44.13;18.92;;;3.10;99.90;;;;;;5008177;28;20026;-82
2022/03/05 01:28:15;;;;;;;39.75;18.88;;;3.20;99.90;;;;;;5007034;28;20496;-82
2022/03/05 01:30:41;;;;;;;42.35;17.92;;;3.00;99.90;;;;;;5007766;28;20026;-82
2022/03/05 01:33:15;;;;;;;39.88;18.55;;;2.20;99.90;;;;;;4990900;28;20030;-82
2022/03/05 01:35:41;;;;;;;38.13;18.17;;;4.10;99.90;;;;;;5005555;28;20032;-82
2022/03/05 01:38:08;;;;;;;40.30;18.92;;;;;;;;;;5006075;28;20029;-83
2022/03/05 01:40:34;;;;;;;49.10;19.15;;;2.90;99.90;;;;;;5004598;28;20037;-82
2022/03/05 01:43:00;;;;;;;41.88;19.65;;;;;;;;;;5004676;28;20402;-85
2022/03/05 01:45:26;;;;;;;39.20;18.38;;;2.90;99.90;;;;;;5004952;28;20418;-82
2022/03/05 01:47:51;;;;;;;42.15;18.63;;;5.40;99.90;;;;;;5022331;28;20108;-83
2022/03/05 01:50:17;;;;;;;39.67;18.83;;;3.30;99.90;;;;;;5005799;28;20043;-82
2022/03/05 01:52:44;;;;;;;38.67;18.63;;;;;;;;;;5005051;28;20029;-81
2022/03/05 01:55:12;;;;;;;41.92;19.08;;;2.40;99.90;;;;;;5022189;28;20030;-80
2022/03/05 01:57:38;;;;;;;42.65;18.50;;;;;;;;;;5002580;28;20044;-79
2022/03/05 02:00:08;;;;;;;41.58;18.35;;;2.80;99.90;;;;;;5006220;28;20030;-86
2022/03/05 02:02:33;;;;;;;39.75;18.02;;;2.70;99.90;;;;;;5005736;28;20036;-80
2022/03/05 02:04:59;;;;;;;36.28;17.35;;;4.30;99.90;;;;;;5006233;28;20498;-80
2022/03/05 02:07:25;;;;;;;39.13;17.55;;;5.30;99.90;;;;;;5005323;28;20057;-80
2022/03/05 02:09:52;;;;;;;44.22;19.05;;;2.60;99.90;;;;;;5006959;28;20029;-82
2022/03/05 02:12:18;;;;;;;40.97;17.77;;;2.80;99.90;;;;;;5006022;28;20018;-82
2022/03/05 02:14:44;;;;;;;40.42;18.40;;;;;;;;;;5006572;28;20078;-82
2022/03/05 02:17:10;;;;;;;39.70;17.77;;;;;;;;;;5005947;28;20391;-82
2022/03/05 02:19:36;;;;;;;39.70;17.20;;;2.50;99.90;;;;;;5005942;28;20022;-85
2022/03/05 02:22:03;;;;;;;40.30;17.15;;;2.50;99.90;;;;;;5003416;28;20076;-82
2022/03/05 02:24:32;;;;;;;38.70;18.33;;;1.60;99.90;;;;;;5003656;28;20375;-81
2022/03/05 02:27:02;;;;;;;39.05;16.80;;;2.50;99.90;;;;;;5003730;28;20049;-82
2022/03/05 02:29:30;;;;;;;35.40;16.17;;;2.50;99.90;;;;;;5004109;28;20022;-81
2022/03/05 02:31:56;;;;;;;38.95;17.67;;;;;;;;;;5002896;28;20030;-81
2022/03/05 02:34:22;;;;;;;39.83;16.98;;;;;;;;;;5002273;28;20018;-82
2022/03/05 02:36:48;;;;;;;39.60;17.98;;;2.50;99.90;;;;;;5002693;28;20386;-82
2022/03/05 02:39:15;;;;;;;38.28;17.05;;;2.30;99.90;;;;;;5019955;28;20038;-80
2022/03/05 02:41:40;;;;;;;39.78;18.58;;;2.40;99.90;;;;;;5019448;28;20041;-81
2022/03/05 02:44:06;;;;;;;33.13;16.10;;;4.50;99.90;;;;;;5020329;28;20112;-81
2022/03/05 02:46:34;;;;;;;38.17;16.60;;;3.80;99.90;;;;;;5002272;28;20018;-81
2022/03/05 02:49:00;;;;;;;37.53;17.67;;;4.40;99.90;;;;;;4999990;28;20022;-80
2022/03/05 02:51:26;;;;;;;35.75;15.93;;;;;;;;;;5001239;28;20026;-84
2022/03/05 02:53:52;;;;;;;39.97;17.60;;;2.30;99.90;;;;;;5000674;28;20021;-85
2022/03/05 02:56:18;;;;;;;38.58;17.73;;;3.80;99.90;;;;;;5001111;28;20033;-80
2022/03/05 02:58:43;;;;;;;44.40;16.50;;;4.50;99.90;;;;;;5000475;28;20613;-81
2022/03/05 03:01:09;;;;;;;38.80;17.73;;;2.10;99.90;;;;;;5000930;28;20034;-80
2022/03/05 03:03:35;;;;;;;40.75;17.25;;;2.30;99.90;;;;;;5001313;28;20064;-82
2022/03/05 03:06:01;;;;;;;34.08;16.08;;;4.70;99.90;;;;;;5018357;28;20034;-81
2022/03/05 03:08:49;;;;;;;38.90;16.48;;;2.20;99.90;;;;;;5019697;28;20024;-81
2022/03/05 03:11:30;;;;;;;36.85;16.63;;;2.10;99.90;;;;;;5005942;28;20041;-81
2022/03/05 03:14:41;;;;;;;42.13;16.42;;;2.10;99.90;;;;;;5018513;28;20026;-81
2022/03/05 03:18:10;;;;;;;37.22;16.23;;;0.00;99.90;;;;;;5016203;28;20120;-81
2022/03/05 03:21:08;;;;;;;37.17;16.17;;;2.00;99.90;;;;;;5019902;28;20113;-79
2022/03/05 03:24:32;;;;;;;41.58;16.52;;;2.30;99.90;;;;;;5019498;28;20022;-81
2022/03/05 03:28:09;;;;;;;38.45;16.45;;;1.80;99.90;;;;;;5012000;28;20030;-81
2022/03/05 03:38:33;;;;;;;40.25;15.38;;;1.80;99.90;;;;;;4941356;29;20034;-81
2022/03/05 03:47:35;;;;;;;40.67;16.85;;;1.70;99.90;;;;;;5036020;22;20073;-80
2022/03/05 03:50:01;;;;;;;40.35;16.42;;;2.70;99.90;;;;;;5009618;28;20034;-80
2022/03/05 03:52:27;;;;;;;39.05;16.95;;;1.00;99.90;;;;;;5013443;28;20030;-81
2022/03/05 03:54:53;;;;;;;43.42;17.67;;;;;;;;;;5002889;28;20084;-79
2022/03/05 03:57:18;;;;;;;39.88;16.60;;;1.60;99.90;;;;;;4995402;28;20026;-79
2022/03/05 03:59:46;;;;;;;40.42;17.00;;;0.10;99.90;;;;;;5002815;28;20030;-81
2022/03/05 04:02:12;;;;;;;40.17;16.80;;;3.50;99.90;;;;;;4995929;28;20026;-80
2022/03/05 04:04:38;;;;;;;40.72;17.05;;;2.10;99.90;;;;;;5013971;28;20087;-78
2022/03/05 04:09:48;;;;;;;38.00;16.15;;;2.90;99.90;;;;;;5009514;28;20034;-80
2022/03/05 04:12:14;;;;;;;36.67;16.50;;;2.80;99.90;;;;;;4999983;28;20022;-79
2022/03/05 04:14:39;;;;;;;41.47;17.48;;;4.10;99.90;;;;;;5022735;28;20050;-79
2022/03/05 04:17:09;;;;;;;40.63;17.95;;;;;;;;;;4994886;28;20022;-78
2022/03/05 04:19:34;;;;;;;40.17;16.95;;;1.50;99.90;;;;;;5014063;28;20471;-79
2022/03/05 04:22:01;;;;;;;38.63;16.33;;;1.30;99.90;;;;;;5015071;28;20033;-79
2022/03/05 04:24:27;;;;;;;40.72;15.80;;;;;;;;;;4999640;28;20403;-79
2022/03/05 04:26:52;;;;;;;42.28;16.17;;;1.50;99.90;;;;;;4998255;28;20423;-81
2022/03/05 04:29:18;;;;;;;40.45;15.63;;;0.90;99.90;;;;;;5014161;28;20026;-79
2022/03/05 04:31:43;;;;;;;38.83;15.60;;;1.40;99.90;;;;;;4999407;28;20448;-79
2022/03/05 04:34:09;;;;;;;40.83;16.10;;;2.90;99.90;;;;;;5001658;28;20021;-81
2022/03/05 04:36:35;;;;;;;40.78;16.08;;;;;;;;;;5014527;28;20431;-81
2022/03/05 04:39:01;;;;;;;38.60;15.35;;;1.60;99.90;;;;;;5017265;28;20034;-82
2022/03/05 04:41:26;;;;;;;36.25;15.77;;;4.40;99.90;;;;;;5007557;28;20034;-81
2022/03/05 04:43:52;;;;;;;37.15;15.10;;;;;;;;;;4994068;28;20026;-81
2022/03/05 04:46:18;;;;;;;39.33;15.20;;;1.50;99.90;;;;;;5015848;28;20113;-79
2022/03/05 04:48:43;;;;;;;41.50;16.15;;;2.50;99.90;;;;;;5016166;28;20030;-82
2022/03/05 04:51:09;;;;;;;36.33;15.38;;;3.90;99.90;;;;;;5013368;28;20026;-79
2022/03/05 04:53:34;;;;;;;39.33;17.02;;;4.00;99.90;;;;;;5010129;28;20030;-80
2022/03/05 04:56:38;;;;;;;37.38;16.33;;;2.60;99.90;;;;;;5071119;22;20041;-82
2022/03/05 04:59:08;;;;;;;37.63;15.50;;;1.20;99.90;;;;;;5046531;28;20040;-83
2022/03/05 05:02:12;;;;;;;39.35;15.65;;;0.80;99.90;;;;;;5015696;28;20025;-82
2022/03/05 05:05:13;;;;;;;41.28;16.60;;;1.50;99.90;;;;;;5056846;28;20119;-81
2022/03/05 05:07:53;;;;;;;35.92;15.50;;;1.40;99.90;;;;;;5051301;28;20033;-81
2022/03/05 05:11:15;;;;;;;40.55;15.98;;;1.40;99.90;;;;;;5056578;28;20057;-82
2022/03/05 05:13:41;;;;;;;40.67;16.40;;;-0.40;99.90;;;;;;5038710;28;20097;-82
2022/03/05 05:16:13;;;;;;;40.42;14.88;;;1.00;99.90;;;;;;5024904;28;20022;-82
2022/03/05 05:19:24;;;;;;;40.13;15.70;;;1.30;99.90;;;;;;5018778;28;20026;-81
2022/03/05 05:21:43;;;;;;;38.05;15.70;;;2.50;99.90;;;;;;5054738;28;20094;-82
2022/03/05 05:24:35;;;;;;;38.83;15.73;;;1.40;99.90;;;;;;5035808;28;20026;-79
2022/03/05 05:27:50;;;;;;;38.08;16.63;;;0.10;99.90;;;;;;5018703;28;20040;-81
2022/03/05 05:30:19;;;;;;;36.58;15.77;;;1.40;99.90;;;;;;5039226;28;20037;-81
2022/03/05 05:32:56;;;;;;;44.72;16.70;;;1.30;99.90;;;;;;5057482;28;20037;-80
2022/03/05 05:35:42;;;;;;;37.58;14.40;;;1.20;99.90;;;;;;5037457;28;20060;-80
2022/03/05 05:38:22;;;;;;;37.58;15.35;;;1.40;99.90;;;;;;5018636;28;20026;-80
2022/03/05 05:41:16;;;;;;;35.92;14.65;;;1.20;99.90;;;;;;5038765;28;20022;-83
2022/03/05 05:43:47;;;;;;;42.88;17.30;;;0.50;99.90;;;;;;5018225;28;20037;-82
2022/03/05 05:46:30;;;;;;;38.75;15.48;;;1.10;99.90;;;;;;5054095;28;20034;-79
2022/03/05 05:49:00;;;;;;;41.25;16.40;;;0.90;99.90;;;;;;5051176;28;20018;-81
2022/03/05 05:51:40;;;;;;;40.20;15.53;;;1.70;99.90;;;;;;5034762;28;20036;-81
2022/03/05 05:54:23;;;;;;;38.40;14.80;;;1.10;99.90;;;;;;5054032;28;20049;-81
2022/03/05 05:57:16;;;;;;;40.92;16.40;;;-0.20;99.90;;;;;;5058093;28;20288;-78
2022/03/05 05:59:46;;;;;;;53.88;19.00;;;1.10;99.90;;;;;;5038046;28;20057;-81
2022/03/05 06:02:14;;;;;;;36.28;16.60;;;0.60;99.90;;;;;;5029747;28;20044;-80
2022/03/05 06:08:07;;;;;;;36.03;15.43;;;0.40;99.90;;;;;;5044475;28;20044;-81
2022/03/05 06:10:38;;;;;;;35.92;14.85;;;2.00;99.90;;;;;;5036392;28;20009;-80
2022/03/05 06:13:04;;;;;;;38.78;16.10;;;;;;;;;;5037478;28;20018;-83
2022/03/05 06:15:33;;;;;;;39.97;14.85;;;;;;;;;;5018615;28;20037;-81
2022/03/05 06:18:14;;;;;;;39.33;15.50;;;1.00;99.90;;;;;;5035644;28;20037;-82
2022/03/05 06:21:01;;;;;;;36.33;15.35;;;1.00;99.90;;;;;;5051331;28;20060;-81
2022/03/05 06:23:30;;;;;;;39.22;16.23;;;;;;;;;;5035817;28;20050;-82
2022/03/05 06:26:08;;;;;;;37.35;14.73;;;1.00;99.90;;;;;;5048234;28;20043;-81
2022/03/05 06:28:42;;;;;;;38.72;15.55;;;1.90;99.90;;;;;;4977468;28;20043;-83
2022/03/05 06:32:04;;;;;;;44.88;15.18;;;1.00;99.90;;;;;;4986063;28;20047;-83
2022/03/05 06:35:10;;;;;;;43.95;15.90;;;0.70;99.90;;;;;;4983360;28;20103;-82
2022/03/05 06:37:58;;;;;;;39.00;16.25;;;1.00;99.90;;;;;;4986123;28;20051;-81
2022/03/05 06:40:28;;;;;;;33.95;15.23;;;1.10;99.90;;;;;;4976011;28;20027;-80
2022/03/05 06:43:00;;;;;;;40.88;16.33;;;;;;;;;;4992519;28;20534;-81
2022/03/05 06:45:37;;;;;;;36.53;15.32;;;1.10;99.90;;;;;;4986715;28;20034;-82
2022/03/05 06:48:39;;;;;;;39.25;15.18;;;1.10;99.90;;;;;;5006667;28;20291;-81
2022/03/05 06:51:12;;;;;;;38.55;14.75;;;0.30;99.90;;;;;;5037668;28;20030;-82
2022/03/05 06:56:41;;;;;;;38.33;15.65;;;1.10;99.90;;;;;;5037508;28;20023;-82
2022/03/05 06:59:54;;;;;;;35.40;15.32;;;1.20;99.90;;;;;;5040555;28;20049;-80
2022/03/05 07:02:33;;;;;;;41.05;15.38;;;-0.50;99.90;;;;;;5040043;28;20002;-81
2022/03/05 07:05:04;;;;;;;34.63;14.05;;;1.40;99.90;;;;;;5049913;28;20101;-82
2022/03/05 07:07:32;;;;;;;37.40;15.93;;;1.30;99.90;;;;;;5042332;28;20030;-80
2022/03/05 07:10:27;;;;;;;40.78;15.45;;;2.20;99.90;;;;;;5048206;28;20101;-82
2022/03/05 07:13:22;;;;;;;35.17;14.25;;;0.70;99.90;;;;;;5030844;28;20029;-81
2022/03/05 07:15:53;;;;;;;37.35;14.68;;;1.60;99.90;;;;;;5116947;22;20109;-82
2022/03/05 07:18:26;;;;;;;34.17;13.60;;;1.90;99.90;;;;;;5069835;28;20056;-81
2022/03/05 07:20:59;;;;;;;34.88;14.18;;;1.70;99.90;;;;;;5068760;28;20029;-81
2022/03/05 07:23:27;;;;;;;31.25;13.77;;;2.60;99.90;;;;;;5058328;28;20094;-80
2022/03/05 07:25:59;;;;;;;32.40;14.38;;;1.50;99.90;;;;;;5390662;22;20037;-82
2022/03/05 07:28:26;;;;;;;;;;;1.50;99.90;;;;;;5046960;28;20009;-80
2022/03/05 07:30:55;;;;;;;32.78;13.98;;;;;;;;;;5046554;28;19905;-80
2022/03/05 07:33:26;;;;;;;34.75;14.10;;;;;;;;;;5027413;28;20090;-80
2022/03/05 07:35:54;;;;;;;30.70;13.50;;;2.00;99.90;;;;;;5041422;28;20022;-80
2022/03/05 07:38:28;;;;;;;31.20;13.57;;;2.10;99.90;;;;;;5020258;28;20117;-80
2022/03/05 07:40:56;;;;;;;28.63;13.13;;;2.20;99.90;;;;;;5018737;28;20026;-78
2022/03/05 07:43:27;;;;;;;31.17;13.52;;;2.00;99.90;;;;;;4987843;28;20041;-80
2022/03/05 07:45:55;;;;;;;29.52;13.13;;;2.30;99.90;;;;;;5024722;28;20022;-80
2022/03/05 07:48:30;;;;;;;31.05;12.77;;;2.30;99.90;;;;;;5010820;28;20023;-78
2022/03/05 07:51:00;;;;;;;27.67;12.75;;;2.30;99.90;;;;;;4986107;28;20042;-81
2022/03/05 07:53:31;;;;;;;28.05;12.48;;;2.40;99.90;;;;;;5012596;28;20030;-78
2022/03/05 07:56:00;;;;;;;30.17;13.18;;;2.10;99.90;;;;;;4987822;28;20034;-80
2022/03/05 07:58:28;;;;;;;29.10;13.00;;;2.60;99.90;;;;;;5011923;28;20042;-79
2022/03/05 08:00:58;;;;;;;27.77;12.57;;;2.60;99.90;;;;;;5012986;28;20033;-80
2022/03/05 08:03:36;;;;;;;31.33;13.23;;;2.70;99.90;;;;;;5027470;28;20018;-79
2022/03/05 08:06:05;;;;;;;24.42;11.45;;;3.70;99.90;;;;;;5002267;28;20042;-81
2022/03/05 08:08:40;;;;;;;29.25;12.88;;;3.00;99.90;;;;;;5023300;28;20048;-81
2022/03/05 08:11:15;;;;;;;26.02;12.20;;;3.00;99.90;;;;;;4995204;28;20030;-81
2022/03/05 08:13:45;;;;;;;27.92;12.88;;;3.10;99.90;;;;;;5000679;28;20044;-80
2022/03/05 08:16:14;;;;;;;28.38;11.45;;;3.20;99.90;;;;;;4988710;28;20090;-81
2022/03/05 08:18:41;;;;;;;26.98;12.55;;;3.30;99.90;;;;;;5006684;28;20049;-82
2022/03/05 08:21:09;;;;;;;33.53;13.80;;;3.30;99.90;;;;;;5040622;28;20029;-81
2022/03/05 08:23:40;;;;;;;26.20;11.98;;;3.80;99.90;;;;;;5022977;28;20054;-80
2022/03/05 08:26:13;;;;;;;28.30;12.50;;;3.40;99.90;;;;;;4995241;28;20035;-83
2022/03/05 08:28:40;;;;;;;26.55;12.43;;;;;;;;;;5022725;28;20130;-81
2022/03/05 08:31:11;;;;;;;23.17;11.35;;;0.90;99.90;;;;;;5008587;28;20027;-79
2022/03/05 08:33:45;;;;;;;26.83;12.88;;;3.60;99.90;;;;;;5005647;28;20072;-80
2022/03/05 08:36:12;;;;;;;25.08;11.77;;;3.90;99.90;;;;;;5037766;28;20034;-82
2022/03/05 08:38:41;;;;;;;25.50;12.07;;;3.80;99.90;;;;;;5039320;28;20033;-83
2022/03/05 08:41:16;;;;;;;26.58;11.50;;;3.90;99.90;;;;;;4999937;28;20045;-82
2022/03/05 08:43:44;;;;;;;25.55;11.95;;;2.70;99.90;;;;;;5003257;28;20038;-82
2022/03/05 08:49:00;;;;;;;27.15;10.88;;;4.10;99.90;;;;;;5326533;22;20060;-78
2022/03/05 08:51:29;;;;;;;23.17;10.93;;;;;;;;;;5046811;28;20017;-80
2022/03/05 08:57:25;;;;;;;23.50;10.45;;;4.30;99.90;;;;;;5035986;28;20032;-81
2022/03/05 09:00:42;;;;;;;22.67;10.98;;;3.50;99.90;;;;;;5034681;28;20515;-80
2022/03/05 09:03:56;;;;;;;22.65;11.32;;;3.60;98.80;;;;;;5016716;28;20041;-81
2022/03/05 09:07:05;;;;;;;24.63;11.48;;;5.80;97.80;;;;;;5017474;28;20034;-80
2022/03/05 09:09:48;;;;;;;25.48;10.75;;;4.50;97.70;;;;;;5029888;28;20029;-80
2022/03/05 09:12:59;;;;;;;21.63;9.95;;;7.40;99.10;;;;;;5030696;28;20094;-81
2022/03/05 09:15:52;;;;;;;22.73;9.65;;;4.80;97.60;;;;;;5036923;28;20022;-80
2022/03/05 09:18:31;;;;;;;23.10;10.90;;;5.00;96.40;;;;;;5019732;28;20037;-80
2022/03/05 09:24:43;;;;;;;23.65;10.73;;;5.10;96.40;;;;;;4999071;28;20065;-81
2022/03/05 09:27:34;;;;;;;22.95;10.43;;;5.90;96.10;;;;;;5039555;28;20046;-81
2022/03/05 09:30:14;;;;;;;24.15;11.02;;;5.60;94.70;;;;;;5037483;28;20018;-82
2022/03/05 09:32:46;;;;;;;21.52;10.55;;;5.80;95.80;;;;;;5029100;28;20033;-80
2022/03/05 09:35:47;;;;;;;23.90;10.40;;;5.60;94.00;;;;;;5038979;28;20046;-82
2022/03/05 09:38:13;;;;;;;22.85;10.43;;;;;;;;;;5035412;28;20034;-82
2022/03/05 09:40:42;;;;;;;21.58;10.20;;;;;;;;;;5059646;28;20089;-80
2022/03/05 09:43:12;;;;;;;20.48;10.25;;;5.80;91.90;;;;;;5039154;28;20139;-80
2022/03/05 09:45:45;;;;;;;22.88;10.88;;;5.90;92.60;;;;;;5019819;28;20049;-81
2022/03/05 09:48:24;;;;;;;23.77;10.65;;;6.00;91.60;;;;;;4987181;28;20041;-82
2022/03/05 09:51:27;;;;;;;21.90;10.32;;;6.10;92.00;;;;;;5018710;28;20018;-80
2022/03/05 09:53:55;;;;;;;20.45;9.65;;;6.10;90.90;;;;;;5020945;28;20061;-81
2022/03/05 09:56:28;;;;;;;22.52;9.63;;;;;;;;;;5018274;28;20029;-81
2022/03/05 09:58:56;;;;;;;20.15;10.20;;;4.70;86.90;;;;;;5018694;28;20037;-81
2022/03/05 10:01:27;;;;;;;18.75;9.10;;;6.50;84.80;;;;;;5035966;28;20030;-82
2022/03/05 10:03:57;;;;;;;21.80;9.60;;;6.60;83.60;;;;;;5034515;28;20034;-80
2022/03/05 10:06:33;;;;;;;22.43;9.43;;;6.60;84.40;;;;;;5015046;28;20037;-83
2022/03/05 10:58:17;;;;;;;10.05;5.85;;;9.50;59.60;;;;;;5026980;28;20050;-87
2022/03/05 11:00:45;;;;;;;10.63;5.35;;;10.40;55.60;;;;;;5019799;28;20025;-81
2022/03/05 11:03:11;;;;;;;9.57;5.47;;;10.70;52.60;;;;;;5036450;28;20022;-84
2022/03/05 11:05:39;;;;;;;9.25;4.90;;;10.50;51.30;;;;;;5027104;28;20030;-83
2022/03/05 11:08:05;;;;;;;8.73;4.93;;;11.90;50.40;;;;;;5002870;28;20017;-85
2022/03/05 11:10:31;;;;;;;9.05;4.72;;;11.10;50.90;;;;;;5011565;28;20562;-84
2022/03/05 11:13:00;;;;;;;8.95;5.40;;;12.50;52.00;;;;;;4989092;28;20034;-83
2022/03/05 11:15:31;;;;;;;9.80;5.80;;;12.50;53.90;;;;;;5011731;28;20034;-82
2022/03/05 11:18:00;;;;;;;;;;;9.90;52.40;;;;;;5002706;28;20030;-83
2022/03/05 11:20:26;;;;;;;8.82;4.88;;;12.40;51.90;;;;;;5003468;28;20618;-84
2022/03/05 11:22:53;;;;;;;8.63;5.13;;;10.80;49.50;;;;;;4989587;28;20052;-82
2022/03/05 11:25:22;;;;;;;7.47;4.40;;;12.60;49.60;;;;;;5012655;28;20065;-84
2022/03/05 11:27:59;;;;;;;8.43;5.03;;;11.50;48.90;;;;;;4986361;28;20029;-85
2022/03/05 11:30:27;;;;;;;9.63;4.82;;;11.10;47.60;;;;;;4991892;28;20076;-85
2022/03/05 11:32:54;;;;;;;9.77;4.82;;;11.60;48.60;;;;;;4988568;28;20033;-84
2022/03/05 11:35:23;;;;;;;8.57;4.38;;;10.60;47.90;;;;;;5003584;28;20069;-81
2022/03/05 11:37:50;;;;;;;8.70;4.38;;;11.70;48.10;;;;;;4990627;28;20037;-82
2022/03/05 11:40:33;;;;;;;6.93;4.22;;;10.30;48.10;;;;;;4990138;28;20022;-79
2022/03/05 11:43:42;;;;;;;7.22;4.43;;;9.60;48.30;;;;;;5007622;28;20116;-81
2022/03/05 11:46:22;;;;;;;8.00;4.35;;;9.50;48.50;;;;;;4918751;29;20040;-80
2022/03/05 11:48:59;;;;;;;8.52;4.68;;;8.80;48.50;;;;;;4984015;28;20237;-81
2022/03/05 11:51:25;;;;;;;8.13;4.93;;;;;;;;;;5001095;28;20476;-82
2022/03/05 11:54:02;;;;;;;9.73;4.47;;;8.90;49.70;;;;;;4999282;28;20069;-79
2022/03/05 11:56:28;;;;;;;9.73;4.28;;;9.00;49.90;;;;;;5015908;28;20108;-82
2022/03/05 11:58:53;;;;;;;7.28;4.60;;;10.50;52.90;;;;;;5015909;28;20025;-82
2022/03/05 12:01:38;;;;;;;7.22;4.55;;;11.30;51.90;;;;;;5014591;28;20030;-82
2022/03/05 12:04:19;;;;;;;8.90;4.55;;;9.80;50.10;;;;;;5011348;28;20025;-82
2022/03/05 12:06:47;;;;;;;8.52;4.78;;;8.90;49.70;;;;;;5023263;28;20037;-85
2022/03/05 12:09:32;;;;;;;7.65;4.20;;;11.50;51.10;;;;;;5014679;28;20026;-82
2022/03/05 12:12:01;;;;;;;8.75;4.43;;;;;;;;;;5009197;28;20049;-85
2022/03/05 12:14:55;;;;;;;10.02;4.75;;;8.90;49.70;;;;;;5007219;28;20049;-84
2022/03/05 12:17:23;;;;;;;10.10;4.93;;;9.00;49.50;;;;;;4992726;28;20026;-85
2022/03/05 12:19:49;;;;;;;8.27;5.00;;;;;;;;;;4990338;28;20391;-85
2022/03/05 12:22:16;;;;;;;7.97;4.38;;;;;;;;;;4998700;28;20049;-84
2022/03/05 12:24:42;;;;;;;8.85;4.72;;;9.30;48.70;;;;;;5000833;28;20029;-85
2022/03/05 12:27:14;;;;;;;8.85;4.57;;;9.10;49.90;;;;;;4987456;28;20092;-84
2022/03/05 12:29:51;;;;;;;8.27;4.72;;;9.10;50.10;;;;;;5000615;28;20026;-86
2022/03/05 12:32:18;;;;;;;7.85;3.90;;;9.60;49.30;;;;;;5019511;28;20022;-85
2022/03/05 12:34:45;;;;;;;8.63;4.95;;;;;;;;;;4989175;28;20022;-83
2022/03/05 12:37:11;;;;;;;10.05;5.45;;;9.20;49.30;;;;;;4993264;28;20177;-82
2022/03/05 12:39:43;;;;;;;9.27;5.10;;;12.30;51.70;;;;;;4990851;28;20048;-82
2022/03/05 12:42:10;;;;;;;8.23;5.05;;;10.00;50.30;;;;;;4992508;28;20104;-87
2022/03/05 12:44:40;;;;;;;8.90;5.00;;;9.30;49.40;;;;;;5007669;28;20041;-81
2022/03/05 12:47:07;;;;;;;8.55;5.15;;;10.40;52.00;;;;;;4998333;28;20029;-84
2022/03/05 12:49:32;;;;;;;10.55;5.03;;;9.50;49.60;;;;;;5008732;28;20030;-82
2022/03/05 12:51:58;;;;;;;8.02;4.53;;;;;;;;;;4997081;28;20042;-80
2022/03/05 12:54:24;;;;;;;9.27;5.05;;;9.40;48.40;;;;;;4994281;28;20272;-83
2022/03/05 12:56:57;;;;;;;9.80;4.68;;;9.40;49.10;;;;;;5016888;28;20034;-84
2022/03/05 12:59:24;;;;;;;7.93;4.68;;;11.90;50.20;;;;;;5006512;28;20036;-86
2022/03/05 13:01:51;;;;;;;8.48;4.78;;;9.50;48.90;;;;;;5016451;28;20038;-84
2022/03/05 13:04:17;;;;;;;9.57;4.65;;;9.70;48.60;;;;;;5008723;28;20022;-85
2022/03/05 13:06:47;;;;;;;8.68;4.72;;;9.60;48.50;;;;;;4995543;28;20091;-85
2022/03/05 13:09:16;;;;;;;8.73;4.95;;;9.90;49.20;;;;;;5005900;28;20030;-81
2022/03/05 13:11:46;;;;;;;9.18;4.90;;;9.60;48.30;;;;;;5013606;28;20033;-80
2022/03/05 13:14:18;;;;;;;9.82;4.57;;;10.10;48.30;;;;;;5002317;28;20049;-87
2022/03/05 13:16:49;;;;;;;8.02;4.65;;;10.10;48.70;;;;;;4997035;28;20030;-83
2022/03/05 13:19:15;;;;;;;8.27;4.80;;;9.40;48.90;;;;;;4997718;28;20018;-80
2022/03/05 13:21:46;;;;;;;8.77;4.78;;;9.30;49.00;;;;;;5002049;28;20112;-82
2022/03/05 13:24:14;;;;;;;10.27;4.75;;;9.10;49.10;;;;;;4982561;28;20040;-87
2022/03/05 13:26:44;;;;;;;8.65;4.55;;;11.50;50.30;;;;;;5018714;28;20026;-86
2022/03/05 13:29:11;;;;;;;8.60;4.72;;;;;;;;;;4997838;28;20057;-86
2022/03/05 13:31:37;;;;;;;8.40;4.82;;;9.40;47.90;;;;;;5014029;28;20098;-83
2022/03/05 13:34:03;;;;;;;8.32;5.05;;;11.80;50.40;;;;;;5025575;28;20479;-85
2022/03/05 13:36:38;;;;;;;9.60;4.90;;;11.90;49.90;;;;;;4991725;28;20097;-83
2022/03/05 13:39:15;;;;;;;11.35;5.10;;;11.70;49.60;;;;;;4990816;28;20042;-82
2022/03/05 13:41:46;;;;;;;7.75;4.85;;;9.40;49.50;;;;;;5004976;28;20026;-82
2022/03/05 13:44:34;;;;;;;7.93;4.20;;;9.50;49.40;;;;;;4998537;28;20030;-84
2022/03/05 13:47:01;;;;;;;9.40;4.45;;;9.40;49.70;;;;;;5011141;28;20033;-82
2022/03/05 13:49:29;;;;;;;12.35;5.13;;;9.70;48.60;;;;;;4994135;28;20025;-82
2022/03/05 13:52:05;;;;;;;8.75;4.93;;;9.80;48.40;;;;;;4994590;28;20029;-87
2022/03/05 13:54:39;;;;;;;8.77;4.85;;;9.80;48.20;;;;;;5026919;28;20018;-84
2022/03/05 13:57:06;;;;;;;8.85;4.35;;;9.80;48.30;;;;;;5000628;28;20148;-81
2022/03/05 13:59:44;;;;;;;10.00;4.30;;;9.30;48.50;;;;;;5002833;28;20025;-86
2022/03/05 14:02:11;;;;;;;7.35;4.35;;;12.00;51.40;;;;;;4976501;28;20033;-80
2022/03/05 14:04:56;;;;;;;8.75;4.40;;;9.50;47.50;;;;;;5010121;28;20112;-82
2022/03/05 14:07:21;;;;;;;8.63;4.57;;;9.90;50.00;;;;;;4999993;28;20037;-83
2022/03/05 14:09:47;;;;;;;9.30;4.90;;;9.30;48.00;;;;;;5024698;28;20048;-82
2022/03/05 14:12:15;;;;;;;7.75;4.72;;;12.10;51.30;;;;;;5012152;28;20029;-81
2022/03/05 14:14:43;;;;;;;9.43;5.50;;;9.80;47.60;;;;;;5003373;28;20408;-84
2022/03/05 14:17:12;;;;;;;9.68;5.00;;;9.00;51.60;;;;;;5008251;28;20022;-83
2022/03/05 14:19:38;;;;;;;8.55;4.75;;;9.80;48.60;;;;;;4996581;28;20065;-82
2022/03/05 14:22:12;;;;;;;8.05;4.90;;;10.60;50.10;;;;;;5006197;28;20017;-84
2022/03/05 14:24:40;;;;;;;8.98;4.38;;;7.90;47.00;;;;;;5001740;28;20101;-81
2022/03/05 14:27:14;;;;;;;7.55;4.65;;;9.90;47.70;;;;;;4987561;28;20030;-85
2022/03/05 14:29:41;;;;;;;9.60;4.97;;;9.90;48.20;;;;;;4991302;28;20033;-83
2022/03/05 14:32:08;;;;;;;7.78;4.45;;;9.60;47.30;;;;;;4996543;28;20025;-88
2022/03/05 14:34:34;;;;;;;9.77;4.15;;;11.80;49.70;;;;;;4997093;28;20128;-83
2022/03/05 14:36:59;;;;;;;9.15;4.75;;;11.60;49.90;;;;;;4993141;28;20477;-80
2022/03/05 14:39:25;;;;;;;8.85;4.55;;;12.20;50.10;;;;;;5012978;28;20064;-81
2022/03/05 14:41:51;;;;;;;7.68;4.18;;;9.60;48.30;;;;;;4990057;28;20028;-84
2022/03/05 14:44:16;;;;;;;6.18;3.80;;;10.40;48.80;;;;;;5010942;28;20055;-83
2022/03/05 14:46:42;;;;;;;7.78;4.85;;;10.90;49.90;;;;;;4997505;28;20033;-84